sensor_id;sensor_type;location;lat;lon;timestamp;P1;durP1;ratioP1;P2;durP2;ratioP2
51907;SDS011;39320;53.214;6.556;2023-12-20T00:01:00;2.25;;;1.27;;
51907;SDS011;39320;53.214;6.556;2023-12-20T00:03:26;1.13;;;1.00;;
51907;SDS011;39320;53.214;6.556;2023-12-20T00:05:52;1.55;;;1.33;;
51907;SDS011;39320;53.214;6.556;2023-12-20T00:08:17;2.03;;;1.48;;
51907;SDS011;39320;53.214;6.556;2023-12-20T00:10:43;1.52;;;1.30;;
51907;SDS011;39320;53.214;6.556;2023-12-20T00:13:09;2.03;;;1.50;;
51907;SDS011;39320;53.214;6.556;2023-12-20T00:15:35;1.85;;;1.55;;
51907;SDS011;39320;53.214;6.556;2023-12-20T00:18:01;2.75;;;1.55;;
51907;SDS011;39320;53.214;6.556;2023-12-20T00:20:28;3.47;;;1.17;;
51907;SDS011;39320;53.214;6.556;2023-12-20T00:22:58;2.95;;;1.60;;
51907;SDS011;39320;53.214;6.556;2023-12-20T00:25:24;3.25;;;1.58;;
51907;SDS011;39320;53.214;6.556;2023-12-20T00:27:50;2.42;;;1.38;;
51907;SDS011;39320;53.214;6.556;2023-12-20T00:30:16;3.17;;;1.75;;
51907;SDS011;39320;53.214;6.556;2023-12-20T00:32:42;1.77;;;1.25;;
51907;SDS011;39320;53.214;6.556;2023-12-20T00:35:14;2.15;;;1.65;;
51907;SDS011;39320;53.214;6.556;2023-12-20T00:37:40;1.70;;;1.60;;
51907;SDS011;39320;53.214;6.556;2023-12-20T00:40:06;2.13;;;1.60;;
51907;SDS011;39320;53.214;6.556;2023-12-20T00:42:32;2.92;;;1.88;;
51907;SDS011;39320;53.214;6.556;2023-12-20T00:44:59;1.60;;;1.50;;
51907;SDS011;39320;53.214;6.556;2023-12-20T00:47:25;1.77;;;1.40;;
51907;SDS011;39320;53.214;6.556;2023-12-20T00:49:51;2.08;;;1.80;;
51907;SDS011;39320;53.214;6.556;2023-12-20T00:52:17;2.20;;;1.38;;
51907;SDS011;39320;53.214;6.556;2023-12-20T00:54:44;2.75;;;1.95;;
51907;SDS011;39320;53.214;6.556;2023-12-20T00:57:10;2.65;;;1.85;;
51907;SDS011;39320;53.214;6.556;2023-12-20T00:59:36;3.17;;;1.63;;
51907;SDS011;39320;53.214;6.556;2023-12-20T01:02:01;2.45;;;1.52;;
51907;SDS011;39320;53.214;6.556;2023-12-20T01:04:27;2.20;;;1.83;;
51907;SDS011;39320;53.214;6.556;2023-12-20T01:06:53;1.75;;;1.58;;
51907;SDS011;39320;53.214;6.556;2023-12-20T01:09:19;2.30;;;1.70;;
51907;SDS011;39320;53.214;6.556;2023-12-20T01:11:45;1.73;;;1.45;;
51907;SDS011;39320;53.214;6.556;2023-12-20T01:14:13;2.65;;;1.45;;
51907;SDS011;39320;53.214;6.556;2023-12-20T01:16:39;1.85;;;1.20;;
51907;SDS011;39320;53.214;6.556;2023-12-20T01:19:05;4.05;;;1.63;;
51907;SDS011;39320;53.214;6.556;2023-12-20T01:21:31;2.15;;;1.85;;
51907;SDS011;39320;53.214;6.556;2023-12-20T01:23:57;2.45;;;1.60;;
51907;SDS011;39320;53.214;6.556;2023-12-20T01:26:23;3.33;;;2.15;;
51907;SDS011;39320;53.214;6.556;2023-12-20T01:28:49;3.17;;;1.50;;
51907;SDS011;39320;53.214;6.556;2023-12-20T01:31:14;3.28;;;1.60;;
51907;SDS011;39320;53.214;6.556;2023-12-20T01:33:40;2.10;;;1.60;;
51907;SDS011;39320;53.214;6.556;2023-12-20T01:36:06;3.35;;;1.85;;
51907;SDS011;39320;53.214;6.556;2023-12-20T01:38:31;3.60;;;1.88;;
51907;SDS011;39320;53.214;6.556;2023-12-20T01:40:57;2.17;;;1.60;;
51907;SDS011;39320;53.214;6.556;2023-12-20T01:43:24;3.58;;;2.08;;
51907;SDS011;39320;53.214;6.556;2023-12-20T01:45:50;2.17;;;1.90;;
51907;SDS011;39320;53.214;6.556;2023-12-20T01:48:16;3.95;;;2.13;;
51907;SDS011;39320;53.214;6.556;2023-12-20T01:50:45;2.47;;;1.60;;
51907;SDS011;39320;53.214;6.556;2023-12-20T01:53:11;3.05;;;2.20;;
51907;SDS011;39320;53.214;6.556;2023-12-20T01:55:40;2.63;;;1.52;;
51907;SDS011;39320;53.214;6.556;2023-12-20T01:58:07;2.22;;;1.58;;
51907;SDS011;39320;53.214;6.556;2023-12-20T02:00:35;3.13;;;1.83;;
51907;SDS011;39320;53.214;6.556;2023-12-20T02:03:02;2.97;;;1.58;;
51907;SDS011;39320;53.214;6.556;2023-12-20T02:05:32;1.85;;;1.65;;
51907;SDS011;39320;53.214;6.556;2023-12-20T02:07:59;3.30;;;1.95;;
51907;SDS011;39320;53.214;6.556;2023-12-20T02:10:25;2.45;;;2.13;;
51907;SDS011;39320;53.214;6.556;2023-12-20T02:12:50;3.58;;;2.00;;
51907;SDS011;39320;53.214;6.556;2023-12-20T02:15:16;2.30;;;1.73;;
51907;SDS011;39320;53.214;6.556;2023-12-20T02:17:42;1.77;;;1.58;;
51907;SDS011;39320;53.214;6.556;2023-12-20T02:20:09;3.95;;;1.65;;
51907;SDS011;39320;53.214;6.556;2023-12-20T02:22:35;3.22;;;1.70;;
51907;SDS011;39320;53.214;6.556;2023-12-20T02:25:00;1.85;;;1.23;;
51907;SDS011;39320;53.214;6.556;2023-12-20T02:27:26;2.55;;;1.60;;
51907;SDS011;39320;53.214;6.556;2023-12-20T02:29:53;3.08;;;1.80;;
51907;SDS011;39320;53.214;6.556;2023-12-20T02:32:18;1.92;;;1.73;;
51907;SDS011;39320;53.214;6.556;2023-12-20T02:34:47;2.50;;;1.58;;
51907;SDS011;39320;53.214;6.556;2023-12-20T02:37:13;2.42;;;1.98;;
51907;SDS011;39320;53.214;6.556;2023-12-20T02:39:38;2.20;;;2.00;;
51907;SDS011;39320;53.214;6.556;2023-12-20T02:42:04;3.95;;;1.48;;
51907;SDS011;39320;53.214;6.556;2023-12-20T02:44:30;2.55;;;2.15;;
51907;SDS011;39320;53.214;6.556;2023-12-20T02:46:55;2.15;;;1.55;;
51907;SDS011;39320;53.214;6.556;2023-12-20T02:49:21;4.03;;;2.13;;
51907;SDS011;39320;53.214;6.556;2023-12-20T02:51:47;2.25;;;2.05;;
51907;SDS011;39320;53.214;6.556;2023-12-20T02:54:13;3.08;;;1.92;;
51907;SDS011;39320;53.214;6.556;2023-12-20T02:56:39;3.78;;;2.00;;
51907;SDS011;39320;53.214;6.556;2023-12-20T02:59:05;3.95;;;2.40;;
51907;SDS011;39320;53.214;6.556;2023-12-20T03:01:31;3.40;;;2.25;;
51907;SDS011;39320;53.214;6.556;2023-12-20T03:03:57;4.72;;;2.65;;
51907;SDS011;39320;53.214;6.556;2023-12-20T03:06:22;2.83;;;2.17;;
51907;SDS011;39320;53.214;6.556;2023-12-20T03:08:48;3.95;;;2.70;;
51907;SDS011;39320;53.214;6.556;2023-12-20T03:11:14;2.15;;;1.95;;
51907;SDS011;39320;53.214;6.556;2023-12-20T03:13:40;3.05;;;2.20;;
51907;SDS011;39320;53.214;6.556;2023-12-20T03:16:09;2.40;;;1.85;;
51907;SDS011;39320;53.214;6.556;2023-12-20T03:18:35;3.58;;;2.47;;
51907;SDS011;39320;53.214;6.556;2023-12-20T03:21:01;3.53;;;2.30;;
51907;SDS011;39320;53.214;6.556;2023-12-20T03:23:27;4.47;;;2.30;;
51907;SDS011;39320;53.214;6.556;2023-12-20T03:25:55;5.78;;;2.35;;
51907;SDS011;39320;53.214;6.556;2023-12-20T03:28:21;3.05;;;2.00;;
51907;SDS011;39320;53.214;6.556;2023-12-20T03:30:48;5.72;;;2.45;;
51907;SDS011;39320;53.214;6.556;2023-12-20T03:33:14;4.63;;;2.67;;
51907;SDS011;39320;53.214;6.556;2023-12-20T03:35:40;4.45;;;2.30;;
51907;SDS011;39320;53.214;6.556;2023-12-20T03:38:05;3.08;;;1.92;;
51907;SDS011;39320;53.214;6.556;2023-12-20T03:40:31;3.35;;;2.25;;
51907;SDS011;39320;53.214;6.556;2023-12-20T03:42:57;2.92;;;2.13;;
51907;SDS011;39320;53.214;6.556;2023-12-20T03:45:22;3.53;;;2.63;;
51907;SDS011;39320;53.214;6.556;2023-12-20T03:47:48;4.55;;;2.70;;
51907;SDS011;39320;53.214;6.556;2023-12-20T03:50:14;3.40;;;1.63;;
51907;SDS011;39320;53.214;6.556;2023-12-20T03:52:40;2.35;;;2.15;;
51907;SDS011;39320;53.214;6.556;2023-12-20T03:55:06;4.35;;;2.38;;
51907;SDS011;39320;53.214;6.556;2023-12-20T03:57:32;2.50;;;2.13;;
51907;SDS011;39320;53.214;6.556;2023-12-20T03:59:58;4.63;;;2.50;;
51907;SDS011;39320;53.214;6.556;2023-12-20T04:02:24;2.63;;;2.10;;
51907;SDS011;39320;53.214;6.556;2023-12-20T04:04:50;3.67;;;2.28;;
51907;SDS011;39320;53.214;6.556;2023-12-20T04:07:18;4.30;;;2.40;;
51907;SDS011;39320;53.214;6.556;2023-12-20T04:09:43;4.82;;;2.45;;
51907;SDS011;39320;53.214;6.556;2023-12-20T04:12:09;4.18;;;2.40;;
51907;SDS011;39320;53.214;6.556;2023-12-20T04:14:35;5.00;;;2.70;;
51907;SDS011;39320;53.214;6.556;2023-12-20T04:17:01;5.72;;;2.60;;
51907;SDS011;39320;53.214;6.556;2023-12-20T04:19:26;5.47;;;2.40;;
51907;SDS011;39320;53.214;6.556;2023-12-20T04:21:52;3.28;;;2.63;;
51907;SDS011;39320;53.214;6.556;2023-12-20T04:24:18;3.30;;;2.55;;
51907;SDS011;39320;53.214;6.556;2023-12-20T04:26:43;4.32;;;2.30;;
51907;SDS011;39320;53.214;6.556;2023-12-20T04:29:09;3.30;;;2.17;;
51907;SDS011;39320;53.214;6.556;2023-12-20T04:31:35;4.65;;;2.55;;
51907;SDS011;39320;53.214;6.556;2023-12-20T04:34:01;3.45;;;2.42;;
51907;SDS011;39320;53.214;6.556;2023-12-20T04:36:26;4.70;;;2.53;;
51907;SDS011;39320;53.214;6.556;2023-12-20T04:38:53;3.47;;;2.25;;
51907;SDS011;39320;53.214;6.556;2023-12-20T04:41:18;3.08;;;2.13;;
51907;SDS011;39320;53.214;6.556;2023-12-20T04:43:44;4.78;;;2.10;;
51907;SDS011;39320;53.214;6.556;2023-12-20T04:46:10;5.10;;;2.70;;
51907;SDS011;39320;53.214;6.556;2023-12-20T04:48:36;3.15;;;2.20;;
51907;SDS011;39320;53.214;6.556;2023-12-20T04:51:02;4.68;;;2.58;;
51907;SDS011;39320;53.214;6.556;2023-12-20T04:53:27;2.95;;;2.13;;
51907;SDS011;39320;53.214;6.556;2023-12-20T04:55:53;4.45;;;2.60;;
51907;SDS011;39320;53.214;6.556;2023-12-20T04:58:19;5.63;;;2.78;;
51907;SDS011;39320;53.214;6.556;2023-12-20T05:00:45;4.30;;;2.53;;
51907;SDS011;39320;53.214;6.556;2023-12-20T05:03:10;3.97;;;2.45;;
51907;SDS011;39320;53.214;6.556;2023-12-20T05:05:36;3.58;;;2.30;;
51907;SDS011;39320;53.214;6.556;2023-12-20T05:08:02;5.63;;;2.63;;
51907;SDS011;39320;53.214;6.556;2023-12-20T05:10:29;3.13;;;2.60;;
51907;SDS011;39320;53.214;6.556;2023-12-20T05:12:54;4.15;;;2.78;;
51907;SDS011;39320;53.214;6.556;2023-12-20T05:15:20;2.97;;;2.30;;
51907;SDS011;39320;53.214;6.556;2023-12-20T05:17:46;4.28;;;2.92;;
51907;SDS011;39320;53.214;6.556;2023-12-20T05:20:11;4.15;;;2.38;;
51907;SDS011;39320;53.214;6.556;2023-12-20T05:22:37;3.22;;;2.50;;
51907;SDS011;39320;53.214;6.556;2023-12-20T05:25:03;3.83;;;2.70;;
51907;SDS011;39320;53.214;6.556;2023-12-20T05:27:29;4.95;;;2.58;;
51907;SDS011;39320;53.214;6.556;2023-12-20T05:29:55;3.88;;;2.60;;
51907;SDS011;39320;53.214;6.556;2023-12-20T05:32:23;6.00;;;3.63;;
51907;SDS011;39320;53.214;6.556;2023-12-20T05:34:49;3.95;;;2.30;;
51907;SDS011;39320;53.214;6.556;2023-12-20T05:37:14;5.00;;;3.10;;
51907;SDS011;39320;53.214;6.556;2023-12-20T05:39:40;3.70;;;2.63;;
51907;SDS011;39320;53.214;6.556;2023-12-20T05:42:06;4.47;;;2.22;;
51907;SDS011;39320;53.214;6.556;2023-12-20T05:44:31;4.20;;;2.40;;
51907;SDS011;39320;53.214;6.556;2023-12-20T05:46:57;5.03;;;2.38;;
51907;SDS011;39320;53.214;6.556;2023-12-20T05:49:23;5.45;;;2.58;;
51907;SDS011;39320;53.214;6.556;2023-12-20T05:51:48;3.78;;;2.75;;
51907;SDS011;39320;53.214;6.556;2023-12-20T05:54:16;3.95;;;2.05;;
51907;SDS011;39320;53.214;6.556;2023-12-20T05:56:42;4.07;;;2.80;;
51907;SDS011;39320;53.214;6.556;2023-12-20T05:59:07;7.85;;;2.63;;
51907;SDS011;39320;53.214;6.556;2023-12-20T06:01:33;3.75;;;2.60;;
51907;SDS011;39320;53.214;6.556;2023-12-20T06:03:59;4.90;;;2.65;;
51907;SDS011;39320;53.214;6.556;2023-12-20T06:06:24;5.60;;;2.58;;
51907;SDS011;39320;53.214;6.556;2023-12-20T06:08:50;4.53;;;2.47;;
51907;SDS011;39320;53.214;6.556;2023-12-20T06:11:18;5.10;;;2.15;;
51907;SDS011;39320;53.214;6.556;2023-12-20T06:13:44;3.45;;;2.10;;
51907;SDS011;39320;53.214;6.556;2023-12-20T06:16:09;3.88;;;2.15;;
51907;SDS011;39320;53.214;6.556;2023-12-20T06:18:35;4.90;;;2.33;;
51907;SDS011;39320;53.214;6.556;2023-12-20T06:21:02;4.47;;;2.30;;
51907;SDS011;39320;53.214;6.556;2023-12-20T06:23:28;5.40;;;2.90;;
51907;SDS011;39320;53.214;6.556;2023-12-20T06:25:53;4.47;;;2.92;;
51907;SDS011;39320;53.214;6.556;2023-12-20T06:28:19;3.70;;;2.00;;
51907;SDS011;39320;53.214;6.556;2023-12-20T06:30:47;4.68;;;2.20;;
51907;SDS011;39320;53.214;6.556;2023-12-20T06:33:14;3.70;;;2.38;;
51907;SDS011;39320;53.214;6.556;2023-12-20T06:35:40;4.22;;;2.47;;
51907;SDS011;39320;53.214;6.556;2023-12-20T06:38:06;4.32;;;2.60;;
51907;SDS011;39320;53.214;6.556;2023-12-20T06:40:31;4.68;;;2.53;;
51907;SDS011;39320;53.214;6.556;2023-12-20T06:42:57;3.25;;;2.17;;
51907;SDS011;39320;53.214;6.556;2023-12-20T06:45:24;4.85;;;2.30;;
51907;SDS011;39320;53.214;6.556;2023-12-20T06:47:50;3.70;;;2.38;;
51907;SDS011;39320;53.214;6.556;2023-12-20T06:50:16;4.32;;;2.40;;
51907;SDS011;39320;53.214;6.556;2023-12-20T06:52:42;3.45;;;2.55;;
51907;SDS011;39320;53.214;6.556;2023-12-20T06:55:07;2.72;;;2.30;;
51907;SDS011;39320;53.214;6.556;2023-12-20T06:57:33;3.35;;;2.42;;
51907;SDS011;39320;53.214;6.556;2023-12-20T07:00:01;6.20;;;2.72;;
51907;SDS011;39320;53.214;6.556;2023-12-20T07:02:27;3.13;;;2.42;;
51907;SDS011;39320;53.214;6.556;2023-12-20T07:04:55;3.53;;;2.42;;
51907;SDS011;39320;53.214;6.556;2023-12-20T07:07:21;4.13;;;2.40;;
51907;SDS011;39320;53.214;6.556;2023-12-20T07:09:49;6.28;;;2.60;;
51907;SDS011;39320;53.214;6.556;2023-12-20T07:12:15;3.33;;;2.65;;
51907;SDS011;39320;53.214;6.556;2023-12-20T07:14:41;3.58;;;2.60;;
51907;SDS011;39320;53.214;6.556;2023-12-20T07:17:07;4.85;;;2.95;;
51907;SDS011;39320;53.214;6.556;2023-12-20T07:19:37;5.72;;;3.05;;
51907;SDS011;39320;53.214;6.556;2023-12-20T07:22:03;4.70;;;2.33;;
51907;SDS011;39320;53.214;6.556;2023-12-20T07:24:29;4.18;;;2.40;;
51907;SDS011;39320;53.214;6.556;2023-12-20T07:26:55;5.07;;;2.40;;
51907;SDS011;39320;53.214;6.556;2023-12-20T07:29:21;4.70;;;2.58;;
51907;SDS011;39320;53.214;6.556;2023-12-20T07:31:46;2.70;;;2.17;;
51907;SDS011;39320;53.214;6.556;2023-12-20T07:34:12;3.35;;;2.53;;
51907;SDS011;39320;53.214;6.556;2023-12-20T07:36:38;3.88;;;2.33;;
51907;SDS011;39320;53.214;6.556;2023-12-20T07:39:04;6.68;;;2.85;;
51907;SDS011;39320;53.214;6.556;2023-12-20T07:41:30;4.70;;;2.45;;
51907;SDS011;39320;53.214;6.556;2023-12-20T07:43:55;4.72;;;2.15;;
51907;SDS011;39320;53.214;6.556;2023-12-20T07:46:21;5.30;;;2.90;;
51907;SDS011;39320;53.214;6.556;2023-12-20T07:48:50;3.53;;;2.78;;
51907;SDS011;39320;53.214;6.556;2023-12-20T07:51:16;3.45;;;2.40;;
51907;SDS011;39320;53.214;6.556;2023-12-20T07:53:41;4.05;;;2.80;;
51907;SDS011;39320;53.214;6.556;2023-12-20T07:56:14;4.90;;;2.58;;
51907;SDS011;39320;53.214;6.556;2023-12-20T07:58:40;4.25;;;2.67;;
51907;SDS011;39320;53.214;6.556;2023-12-20T08:01:06;4.10;;;2.20;;
51907;SDS011;39320;53.214;6.556;2023-12-20T08:03:31;3.63;;;2.47;;
51907;SDS011;39320;53.214;6.556;2023-12-20T08:05:57;2.53;;;2.30;;
51907;SDS011;39320;53.214;6.556;2023-12-20T08:08:24;3.17;;;2.33;;
51907;SDS011;39320;53.214;6.556;2023-12-20T08:10:50;5.60;;;2.67;;
51907;SDS011;39320;53.214;6.556;2023-12-20T08:13:16;4.80;;;2.92;;
51907;SDS011;39320;53.214;6.556;2023-12-20T08:15:42;3.95;;;2.40;;
51907;SDS011;39320;53.214;6.556;2023-12-20T08:18:07;4.03;;;2.72;;
51907;SDS011;39320;53.214;6.556;2023-12-20T08:20:33;4.18;;;2.67;;
51907;SDS011;39320;53.214;6.556;2023-12-20T08:22:59;3.95;;;2.70;;
51907;SDS011;39320;53.214;6.556;2023-12-20T08:25:25;2.92;;;2.60;;
51907;SDS011;39320;53.214;6.556;2023-12-20T08:27:52;4.60;;;3.03;;
51907;SDS011;39320;53.214;6.556;2023-12-20T08:30:18;4.55;;;2.67;;
51907;SDS011;39320;53.214;6.556;2023-12-20T08:32:47;2.30;;;2.10;;
51907;SDS011;39320;53.214;6.556;2023-12-20T08:35:13;4.25;;;2.45;;
51907;SDS011;39320;53.214;6.556;2023-12-20T08:37:39;2.92;;;1.85;;
51907;SDS011;39320;53.214;6.556;2023-12-20T08:40:05;5.40;;;2.83;;
51907;SDS011;39320;53.214;6.556;2023-12-20T08:42:31;2.22;;;1.20;;
51907;SDS011;39320;53.214;6.556;2023-12-20T08:44:57;1.80;;;1.70;;
51907;SDS011;39320;53.214;6.556;2023-12-20T08:47:23;1.42;;;1.10;;
51907;SDS011;39320;53.214;6.556;2023-12-20T08:49:50;1.52;;;1.17;;
51907;SDS011;39320;53.214;6.556;2023-12-20T08:52:15;1.13;;;1.00;;
51907;SDS011;39320;53.214;6.556;2023-12-20T08:54:41;1.73;;;1.10;;
51907;SDS011;39320;53.214;6.556;2023-12-20T08:57:07;0.82;;;0.70;;
51907;SDS011;39320;53.214;6.556;2023-12-20T08:59:33;1.00;;;0.95;;
51907;SDS011;39320;53.214;6.556;2023-12-20T09:01:59;2.08;;;1.35;;
51907;SDS011;39320;53.214;6.556;2023-12-20T09:04:24;1.30;;;1.20;;
51907;SDS011;39320;53.214;6.556;2023-12-20T09:06:50;1.90;;;1.38;;
51907;SDS011;39320;53.214;6.556;2023-12-20T09:09:16;1.73;;;1.10;;
51907;SDS011;39320;53.214;6.556;2023-12-20T09:11:42;2.50;;;1.30;;
51907;SDS011;39320;53.214;6.556;2023-12-20T09:14:08;2.67;;;1.40;;
51907;SDS011;39320;53.214;6.556;2023-12-20T09:16:34;2.28;;;1.73;;
51907;SDS011;39320;53.214;6.556;2023-12-20T09:19:00;2.38;;;1.88;;
51907;SDS011;39320;53.214;6.556;2023-12-20T09:21:25;2.65;;;1.45;;
51907;SDS011;39320;53.214;6.556;2023-12-20T09:23:51;1.98;;;1.40;;
51907;SDS011;39320;53.214;6.556;2023-12-20T09:26:17;2.75;;;1.38;;
51907;SDS011;39320;53.214;6.556;2023-12-20T09:28:43;1.20;;;1.00;;
51907;SDS011;39320;53.214;6.556;2023-12-20T09:31:09;1.40;;;1.30;;
51907;SDS011;39320;53.214;6.556;2023-12-20T09:33:35;0.88;;;0.88;;
51907;SDS011;39320;53.214;6.556;2023-12-20T09:36:00;1.02;;;0.93;;
51907;SDS011;39320;53.214;6.556;2023-12-20T09:38:26;1.05;;;0.95;;
51907;SDS011;39320;53.214;6.556;2023-12-20T09:40:52;1.45;;;1.35;;
51907;SDS011;39320;53.214;6.556;2023-12-20T09:43:19;1.95;;;1.10;;
51907;SDS011;39320;53.214;6.556;2023-12-20T09:45:47;1.40;;;1.17;;
51907;SDS011;39320;53.214;6.556;2023-12-20T09:48:17;2.28;;;1.00;;
51907;SDS011;39320;53.214;6.556;2023-12-20T09:50:44;1.25;;;0.93;;
51907;SDS011;39320;53.214;6.556;2023-12-20T09:53:11;1.13;;;0.85;;
51907;SDS011;39320;53.214;6.556;2023-12-20T09:55:40;1.27;;;1.17;;
51907;SDS011;39320;53.214;6.556;2023-12-20T09:58:07;2.95;;;1.25;;
51907;SDS011;39320;53.214;6.556;2023-12-20T10:00:36;1.23;;;1.13;;
51907;SDS011;39320;53.214;6.556;2023-12-20T10:03:02;1.95;;;1.45;;
51907;SDS011;39320;53.214;6.556;2023-12-20T10:05:31;1.30;;;1.20;;
51907;SDS011;39320;53.214;6.556;2023-12-20T10:07:58;1.40;;;1.30;;
51907;SDS011;39320;53.214;6.556;2023-12-20T10:10:25;1.60;;;1.40;;
51907;SDS011;39320;53.214;6.556;2023-12-20T10:13:06;1.27;;;1.17;;
51907;SDS011;39320;53.214;6.556;2023-12-20T10:15:34;1.85;;;1.30;;
51907;SDS011;39320;53.214;6.556;2023-12-20T10:18:03;2.22;;;1.27;;
51907;SDS011;39320;53.214;6.556;2023-12-20T10:20:30;1.65;;;1.40;;
51907;SDS011;39320;53.214;6.556;2023-12-20T10:22:59;3.15;;;1.70;;
51907;SDS011;39320;53.214;6.556;2023-12-20T10:25:26;1.40;;;1.30;;
51907;SDS011;39320;53.214;6.556;2023-12-20T10:28:08;1.80;;;1.38;;
51907;SDS011;39320;53.214;6.556;2023-12-20T10:30:38;1.83;;;1.23;;
51907;SDS011;39320;53.214;6.556;2023-12-20T10:33:05;2.22;;;1.30;;
51907;SDS011;39320;53.214;6.556;2023-12-20T10:35:35;2.47;;;1.48;;
51907;SDS011;39320;53.214;6.556;2023-12-20T10:38:05;2.83;;;1.73;;
51907;SDS011;39320;53.214;6.556;2023-12-20T10:40:35;2.47;;;1.85;;
51907;SDS011;39320;53.214;6.556;2023-12-20T10:43:02;2.28;;;1.52;;
51907;SDS011;39320;53.214;6.556;2023-12-20T10:45:28;2.72;;;1.60;;
51907;SDS011;39320;53.214;6.556;2023-12-20T10:47:54;3.55;;;1.70;;
51907;SDS011;39320;53.214;6.556;2023-12-20T10:50:24;2.15;;;1.73;;
51907;SDS011;39320;53.214;6.556;2023-12-20T10:52:51;1.67;;;1.42;;
51907;SDS011;39320;53.214;6.556;2023-12-20T10:55:23;3.08;;;2.03;;
51907;SDS011;39320;53.214;6.556;2023-12-20T10:57:50;2.58;;;1.65;;
51907;SDS011;39320;53.214;6.556;2023-12-20T11:00:17;3.72;;;1.55;;
51907;SDS011;39320;53.214;6.556;2023-12-20T11:02:44;2.90;;;1.40;;
51907;SDS011;39320;53.214;6.556;2023-12-20T11:05:16;2.67;;;1.63;;
51907;SDS011;39320;53.214;6.556;2023-12-20T11:08:07;2.88;;;1.80;;
51907;SDS011;39320;53.214;6.556;2023-12-20T11:10:48;2.78;;;2.08;;
51907;SDS011;39320;53.214;6.556;2023-12-20T11:13:17;3.13;;;1.60;;
51907;SDS011;39320;53.214;6.556;2023-12-20T11:15:48;3.38;;;1.90;;
51907;SDS011;39320;53.214;6.556;2023-12-20T11:18:14;2.85;;;1.95;;
51907;SDS011;39320;53.214;6.556;2023-12-20T11:20:41;2.20;;;1.50;;
51907;SDS011;39320;53.214;6.556;2023-12-20T11:23:07;3.58;;;2.20;;
51907;SDS011;39320;53.214;6.556;2023-12-20T11:25:45;3.13;;;2.08;;
51907;SDS011;39320;53.214;6.556;2023-12-20T11:28:16;3.97;;;2.42;;
51907;SDS011;39320;53.214;6.556;2023-12-20T11:30:51;2.72;;;1.67;;
51907;SDS011;39320;53.214;6.556;2023-12-20T11:33:22;2.33;;;1.85;;
51907;SDS011;39320;53.214;6.556;2023-12-20T11:35:49;2.72;;;1.73;;
51907;SDS011;39320;53.214;6.556;2023-12-20T11:38:20;2.60;;;2.10;;
51907;SDS011;39320;53.214;6.556;2023-12-20T11:40:47;4.80;;;2.03;;
51907;SDS011;39320;53.214;6.556;2023-12-20T11:43:30;3.78;;;1.98;;
51907;SDS011;39320;53.214;6.556;2023-12-20T11:46:04;2.00;;;1.65;;
51907;SDS011;39320;53.214;6.556;2023-12-20T11:48:35;3.53;;;1.90;;
51907;SDS011;39320;53.214;6.556;2023-12-20T11:51:02;4.00;;;2.25;;
51907;SDS011;39320;53.214;6.556;2023-12-20T11:53:29;3.83;;;1.90;;
51907;SDS011;39320;53.214;6.556;2023-12-20T11:55:57;3.30;;;1.80;;
51907;SDS011;39320;53.214;6.556;2023-12-20T11:58:22;3.10;;;1.60;;
51907;SDS011;39320;53.214;6.556;2023-12-20T12:00:49;2.53;;;1.70;;
51907;SDS011;39320;53.214;6.556;2023-12-20T12:03:16;3.83;;;1.83;;
51907;SDS011;39320;53.214;6.556;2023-12-20T12:05:41;4.13;;;2.05;;
51907;SDS011;39320;53.214;6.556;2023-12-20T12:08:07;3.05;;;1.63;;
51907;SDS011;39320;53.214;6.556;2023-12-20T12:10:33;1.98;;;1.77;;
51907;SDS011;39320;53.214;6.556;2023-12-20T12:12:59;2.92;;;1.65;;
51907;SDS011;39320;53.214;6.556;2023-12-20T12:15:25;3.03;;;1.67;;
51907;SDS011;39320;53.214;6.556;2023-12-20T12:17:55;3.38;;;1.90;;
51907;SDS011;39320;53.214;6.556;2023-12-20T12:20:21;3.95;;;1.80;;
51907;SDS011;39320;53.214;6.556;2023-12-20T12:23:06;3.33;;;1.67;;
51907;SDS011;39320;53.214;6.556;2023-12-20T12:25:32;3.05;;;2.05;;
51907;SDS011;39320;53.214;6.556;2023-12-20T12:28:00;3.33;;;1.98;;
51907;SDS011;39320;53.214;6.556;2023-12-20T12:30:26;3.22;;;2.00;;
51907;SDS011;39320;53.214;6.556;2023-12-20T12:32:52;3.10;;;1.85;;
51907;SDS011;39320;53.214;6.556;2023-12-20T12:35:19;1.70;;;1.45;;
51907;SDS011;39320;53.214;6.556;2023-12-20T12:37:45;2.10;;;1.83;;
51907;SDS011;39320;53.214;6.556;2023-12-20T12:40:15;4.68;;;1.83;;
51907;SDS011;39320;53.214;6.556;2023-12-20T12:42:42;3.20;;;1.50;;
51907;SDS011;39320;53.214;6.556;2023-12-20T12:45:09;1.98;;;1.85;;
51907;SDS011;39320;53.214;6.556;2023-12-20T12:47:36;2.30;;;1.90;;
51907;SDS011;39320;53.214;6.556;2023-12-20T12:50:02;2.47;;;1.45;;
51907;SDS011;39320;53.214;6.556;2023-12-20T12:52:29;2.85;;;1.67;;
51907;SDS011;39320;53.214;6.556;2023-12-20T12:54:55;2.83;;;1.80;;
51907;SDS011;39320;53.214;6.556;2023-12-20T12:57:21;1.95;;;1.58;;
51907;SDS011;39320;53.214;6.556;2023-12-20T12:59:47;2.40;;;1.40;;
51907;SDS011;39320;53.214;6.556;2023-12-20T13:02:14;2.08;;;1.40;;
51907;SDS011;39320;53.214;6.556;2023-12-20T13:04:41;2.65;;;1.70;;
51907;SDS011;39320;53.214;6.556;2023-12-20T13:07:07;3.17;;;1.90;;
51907;SDS011;39320;53.214;6.556;2023-12-20T13:09:36;3.78;;;2.05;;
51907;SDS011;39320;53.214;6.556;2023-12-20T13:12:01;2.63;;;1.73;;
51907;SDS011;39320;53.214;6.556;2023-12-20T13:14:29;2.70;;;1.63;;
51907;SDS011;39320;53.214;6.556;2023-12-20T13:16:57;2.58;;;1.65;;
51907;SDS011;39320;53.214;6.556;2023-12-20T13:19:23;2.38;;;1.77;;
51907;SDS011;39320;53.214;6.556;2023-12-20T13:21:48;2.45;;;2.03;;
51907;SDS011;39320;53.214;6.556;2023-12-20T13:24:14;2.33;;;1.38;;
51907;SDS011;39320;53.214;6.556;2023-12-20T13:26:40;2.60;;;1.80;;
51907;SDS011;39320;53.214;6.556;2023-12-20T13:29:06;2.40;;;1.90;;
51907;SDS011;39320;53.214;6.556;2023-12-20T13:31:31;2.95;;;1.67;;
51907;SDS011;39320;53.214;6.556;2023-12-20T13:33:57;3.28;;;1.80;;
51907;SDS011;39320;53.214;6.556;2023-12-20T13:36:23;4.30;;;1.95;;
51907;SDS011;39320;53.214;6.556;2023-12-20T13:38:49;2.30;;;1.77;;
51907;SDS011;39320;53.214;6.556;2023-12-20T13:41:15;2.65;;;1.83;;
51907;SDS011;39320;53.214;6.556;2023-12-20T13:43:41;1.75;;;1.60;;
51907;SDS011;39320;53.214;6.556;2023-12-20T13:46:07;2.90;;;1.77;;
51907;SDS011;39320;53.214;6.556;2023-12-20T13:48:34;2.22;;;1.58;;
51907;SDS011;39320;53.214;6.556;2023-12-20T13:51:00;2.65;;;1.65;;
51907;SDS011;39320;53.214;6.556;2023-12-20T13:53:27;2.25;;;1.40;;
51907;SDS011;39320;53.214;6.556;2023-12-20T13:55:53;2.22;;;1.70;;
51907;SDS011;39320;53.214;6.556;2023-12-20T13:58:19;1.75;;;1.45;;
51907;SDS011;39320;53.214;6.556;2023-12-20T14:00:45;2.47;;;1.35;;
51907;SDS011;39320;53.214;6.556;2023-12-20T14:03:11;1.65;;;1.30;;
51907;SDS011;39320;53.214;6.556;2023-12-20T14:05:36;2.35;;;1.73;;
51907;SDS011;39320;53.214;6.556;2023-12-20T14:08:02;2.10;;;1.30;;
51907;SDS011;39320;53.214;6.556;2023-12-20T14:10:28;1.23;;;1.02;;
51907;SDS011;39320;53.214;6.556;2023-12-20T14:12:55;1.40;;;1.10;;
51907;SDS011;39320;53.214;6.556;2023-12-20T14:15:21;2.20;;;1.50;;
51907;SDS011;39320;53.214;6.556;2023-12-20T14:17:50;1.52;;;1.30;;
51907;SDS011;39320;53.214;6.556;2023-12-20T14:20:16;1.52;;;1.20;;
51907;SDS011;39320;53.214;6.556;2023-12-20T14:22:43;2.17;;;1.25;;
51907;SDS011;39320;53.214;6.556;2023-12-20T14:25:15;1.33;;;1.23;;
51907;SDS011;39320;53.214;6.556;2023-12-20T14:27:41;1.95;;;1.27;;
51907;SDS011;39320;53.214;6.556;2023-12-20T14:30:10;1.27;;;1.10;;
51907;SDS011;39320;53.214;6.556;2023-12-20T14:32:39;1.40;;;1.30;;
51907;SDS011;39320;53.214;6.556;2023-12-20T14:35:05;1.27;;;1.17;;
51907;SDS011;39320;53.214;6.556;2023-12-20T14:37:31;1.92;;;1.55;;
51907;SDS011;39320;53.214;6.556;2023-12-20T14:39:57;1.65;;;1.40;;
51907;SDS011;39320;53.214;6.556;2023-12-20T14:42:23;1.25;;;1.17;;
51907;SDS011;39320;53.214;6.556;2023-12-20T14:44:49;1.48;;;1.25;;